sensor_id;sensor_type;location;lat;lon;timestamp;P1;durP1;ratioP1;P2;durP2;ratioP2
15198;SDS011;7700;48.654;9.070;2024-02-16T00:00:09;5.33;;;4.83;;
15198;SDS011;7700;48.654;9.070;2024-02-16T00:02:36;5.40;;;4.20;;
15198;SDS011;7700;48.654;9.070;2024-02-16T00:05:02;7.30;;;4.20;;
15198;SDS011;7700;48.654;9.070;2024-02-16T00:07:30;4.17;;;3.87;;
15198;SDS011;7700;48.654;9.070;2024-02-16T00:09:55;5.97;;;4.13;;
15198;SDS011;7700;48.654;9.070;2024-02-16T00:12:21;4.23;;;3.93;;
15198;SDS011;7700;48.654;9.070;2024-02-16T00:14:47;6.20;;;4.40;;
15198;SDS011;7700;48.654;9.070;2024-02-16T00:17:13;5.20;;;4.07;;
15198;SDS011;7700;48.654;9.070;2024-02-16T00:19:38;4.70;;;3.97;;
15198;SDS011;7700;48.654;9.070;2024-02-16T00:22:04;7.00;;;3.80;;
15198;SDS011;7700;48.654;9.070;2024-02-16T00:24:32;4.77;;;3.57;;
15198;SDS011;7700;48.654;9.070;2024-02-16T00:26:58;6.27;;;4.03;;
15198;SDS011;7700;48.654;9.070;2024-02-16T00:29:24;5.23;;;3.83;;
15198;SDS011;7700;48.654;9.070;2024-02-16T00:31:50;4.80;;;4.33;;
15198;SDS011;7700;48.654;9.070;2024-02-16T00:34:15;4.17;;;3.77;;
15198;SDS011;7700;48.654;9.070;2024-02-16T00:36:41;7.20;;;4.43;;
15198;SDS011;7700;48.654;9.070;2024-02-16T00:39:06;6.23;;;4.80;;
15198;SDS011;7700;48.654;9.070;2024-02-16T00:41:32;6.20;;;5.30;;
15198;SDS011;7700;48.654;9.070;2024-02-16T00:43:58;8.23;;;5.57;;
15198;SDS011;7700;48.654;9.070;2024-02-16T00:46:23;4.60;;;3.93;;
15198;SDS011;7700;48.654;9.070;2024-02-16T00:48:49;5.27;;;3.63;;
15198;SDS011;7700;48.654;9.070;2024-02-16T00:51:16;4.73;;;3.60;;
15198;SDS011;7700;48.654;9.070;2024-02-16T00:53:41;4.93;;;3.90;;
15198;SDS011;7700;48.654;9.070;2024-02-16T00:56:07;5.17;;;3.60;;
15198;SDS011;7700;48.654;9.070;2024-02-16T00:58:33;4.47;;;3.30;;
15198;SDS011;7700;48.654;9.070;2024-02-16T01:00:59;5.77;;;3.90;;
15198;SDS011;7700;48.654;9.070;2024-02-16T01:03:24;4.30;;;3.87;;
15198;SDS011;7700;48.654;9.070;2024-02-16T01:05:51;4.90;;;3.50;;
15198;SDS011;7700;48.654;9.070;2024-02-16T01:08:17;3.80;;;3.50;;
15198;SDS011;7700;48.654;9.070;2024-02-16T01:10:43;4.27;;;3.70;;
15198;SDS011;7700;48.654;9.070;2024-02-16T01:13:08;4.83;;;4.00;;
15198;SDS011;7700;48.654;9.070;2024-02-16T01:15:35;4.67;;;3.90;;
15198;SDS011;7700;48.654;9.070;2024-02-16T01:18:02;5.30;;;4.10;;
15198;SDS011;7700;48.654;9.070;2024-02-16T01:20:28;4.97;;;4.03;;
15198;SDS011;7700;48.654;9.070;2024-02-16T01:22:56;4.67;;;4.03;;
15198;SDS011;7700;48.654;9.070;2024-02-16T01:25:22;4.57;;;3.50;;
15198;SDS011;7700;48.654;9.070;2024-02-16T01:27:47;4.13;;;3.73;;
15198;SDS011;7700;48.654;9.070;2024-02-16T01:30:13;3.53;;;3.23;;
15198;SDS011;7700;48.654;9.070;2024-02-16T01:32:40;3.80;;;3.43;;
15198;SDS011;7700;48.654;9.070;2024-02-16T01:35:06;3.53;;;3.10;;
15198;SDS011;7700;48.654;9.070;2024-02-16T01:37:32;4.53;;;4.13;;
15198;SDS011;7700;48.654;9.070;2024-02-16T01:39:57;3.93;;;3.43;;
15198;SDS011;7700;48.654;9.070;2024-02-16T01:42:23;4.53;;;4.03;;
15198;SDS011;7700;48.654;9.070;2024-02-16T01:44:49;4.37;;;3.97;;
15198;SDS011;7700;48.654;9.070;2024-02-16T01:47:15;4.77;;;3.50;;
15198;SDS011;7700;48.654;9.070;2024-02-16T01:49:41;4.40;;;4.00;;
15198;SDS011;7700;48.654;9.070;2024-02-16T01:52:07;5.33;;;4.20;;
15198;SDS011;7700;48.654;9.070;2024-02-16T01:54:32;4.37;;;3.23;;
15198;SDS011;7700;48.654;9.070;2024-02-16T01:56:58;5.20;;;3.83;;
15198;SDS011;7700;48.654;9.070;2024-02-16T01:59:25;4.57;;;3.90;;
15198;SDS011;7700;48.654;9.070;2024-02-16T02:01:51;3.90;;;3.50;;
15198;SDS011;7700;48.654;9.070;2024-02-16T02:04:16;4.13;;;3.17;;
15198;SDS011;7700;48.654;9.070;2024-02-16T02:06:42;2.90;;;2.67;;
15198;SDS011;7700;48.654;9.070;2024-02-16T02:09:08;4.27;;;3.30;;
15198;SDS011;7700;48.654;9.070;2024-02-16T02:11:34;5.20;;;3.20;;
15198;SDS011;7700;48.654;9.070;2024-02-16T02:13:59;5.10;;;3.77;;
15198;SDS011;7700;48.654;9.070;2024-02-16T02:16:25;3.90;;;3.50;;
15198;SDS011;7700;48.654;9.070;2024-02-16T02:18:51;3.83;;;3.47;;
15198;SDS011;7700;48.654;9.070;2024-02-16T02:21:17;4.27;;;3.73;;
15198;SDS011;7700;48.654;9.070;2024-02-16T02:23:43;5.03;;;3.50;;
15198;SDS011;7700;48.654;9.070;2024-02-16T02:26:09;3.27;;;2.90;;
15198;SDS011;7700;48.654;9.070;2024-02-16T02:28:34;3.77;;;3.47;;
15198;SDS011;7700;48.654;9.070;2024-02-16T02:31:00;4.10;;;3.70;;
15198;SDS011;7700;48.654;9.070;2024-02-16T02:33:25;4.37;;;3.83;;
15198;SDS011;7700;48.654;9.070;2024-02-16T02:35:51;3.43;;;3.13;;
15198;SDS011;7700;48.654;9.070;2024-02-16T02:38:17;3.87;;;3.40;;
15198;SDS011;7700;48.654;9.070;2024-02-16T02:40:42;3.80;;;3.50;;
15198;SDS011;7700;48.654;9.070;2024-02-16T02:43:08;3.67;;;3.37;;
15198;SDS011;7700;48.654;9.070;2024-02-16T02:45:33;4.20;;;3.40;;
15198;SDS011;7700;48.654;9.070;2024-02-16T02:47:59;4.17;;;3.63;;
15198;SDS011;7700;48.654;9.070;2024-02-16T02:50:25;3.77;;;3.23;;
15198;SDS011;7700;48.654;9.070;2024-02-16T02:52:51;3.80;;;3.40;;
15198;SDS011;7700;48.654;9.070;2024-02-16T02:55:17;4.43;;;4.07;;
15198;SDS011;7700;48.654;9.070;2024-02-16T02:57:42;3.80;;;3.40;;
15198;SDS011;7700;48.654;9.070;2024-02-16T03:00:08;3.97;;;3.67;;
15198;SDS011;7700;48.654;9.070;2024-02-16T03:02:36;4.80;;;4.10;;
15198;SDS011;7700;48.654;9.070;2024-02-16T03:05:03;4.40;;;3.90;;
15198;SDS011;7700;48.654;9.070;2024-02-16T03:07:30;4.00;;;3.70;;
15198;SDS011;7700;48.654;9.070;2024-02-16T03:09:56;4.90;;;3.97;;
15198;SDS011;7700;48.654;9.070;2024-02-16T03:12:21;5.13;;;3.60;;
15198;SDS011;7700;48.654;9.070;2024-02-16T03:14:47;3.60;;;3.30;;
15198;SDS011;7700;48.654;9.070;2024-02-16T03:17:12;3.80;;;3.40;;
15198;SDS011;7700;48.654;9.070;2024-02-16T03:19:38;4.97;;;3.80;;
15198;SDS011;7700;48.654;9.070;2024-02-16T03:22:03;4.10;;;3.70;;
15198;SDS011;7700;48.654;9.070;2024-02-16T03:24:29;3.60;;;3.30;;
15198;SDS011;7700;48.654;9.070;2024-02-16T03:26:55;3.57;;;3.27;;
15198;SDS011;7700;48.654;9.070;2024-02-16T03:29:21;3.43;;;3.13;;
15198;SDS011;7700;48.654;9.070;2024-02-16T03:31:46;3.27;;;3.00;;
15198;SDS011;7700;48.654;9.070;2024-02-16T03:34:12;3.60;;;3.20;;
15198;SDS011;7700;48.654;9.070;2024-02-16T03:36:37;4.40;;;3.33;;
15198;SDS011;7700;48.654;9.070;2024-02-16T03:39:03;4.03;;;3.50;;
15198;SDS011;7700;48.654;9.070;2024-02-16T03:41:29;3.73;;;3.27;;
15198;SDS011;7700;48.654;9.070;2024-02-16T03:43:54;3.83;;;3.53;;
15198;SDS011;7700;48.654;9.070;2024-02-16T03:46:22;4.43;;;3.57;;
15198;SDS011;7700;48.654;9.070;2024-02-16T03:48:48;5.17;;;3.90;;
15198;SDS011;7700;48.654;9.070;2024-02-16T03:51:13;5.93;;;4.20;;
15198;SDS011;7700;48.654;9.070;2024-02-16T03:53:39;4.43;;;3.73;;
15198;SDS011;7700;48.654;9.070;2024-02-16T03:56:04;4.17;;;3.77;;
15198;SDS011;7700;48.654;9.070;2024-02-16T03:58:32;3.87;;;3.57;;
15198;SDS011;7700;48.654;9.070;2024-02-16T04:00:57;3.93;;;3.63;;
15198;SDS011;7700;48.654;9.070;2024-02-16T04:03:23;3.60;;;3.30;;
15198;SDS011;7700;48.654;9.070;2024-02-16T04:05:49;3.90;;;3.60;;
15198;SDS011;7700;48.654;9.070;2024-02-16T04:08:14;4.90;;;3.47;;
15198;SDS011;7700;48.654;9.070;2024-02-16T04:10:40;3.10;;;2.90;;
15198;SDS011;7700;48.654;9.070;2024-02-16T04:13:05;4.13;;;3.77;;
15198;SDS011;7700;48.654;9.070;2024-02-16T04:15:31;4.63;;;3.40;;
15198;SDS011;7700;48.654;9.070;2024-02-16T04:17:57;3.70;;;3.40;;
15198;SDS011;7700;48.654;9.070;2024-02-16T04:20:22;3.87;;;3.27;;
15198;SDS011;7700;48.654;9.070;2024-02-16T04:22:48;3.03;;;2.83;;
15198;SDS011;7700;48.654;9.070;2024-02-16T04:25:13;3.20;;;2.90;;
15198;SDS011;7700;48.654;9.070;2024-02-16T04:27:39;3.40;;;3.10;;
15198;SDS011;7700;48.654;9.070;2024-02-16T04:30:04;3.13;;;2.83;;
15198;SDS011;7700;48.654;9.070;2024-02-16T04:32:31;3.37;;;2.90;;
15198;SDS011;7700;48.654;9.070;2024-02-16T04:34:57;3.63;;;2.73;;
15198;SDS011;7700;48.654;9.070;2024-02-16T04:37:24;4.27;;;3.03;;
15198;SDS011;7700;48.654;9.070;2024-02-16T04:39:51;3.80;;;3.10;;
15198;SDS011;7700;48.654;9.070;2024-02-16T04:42:17;3.17;;;2.93;;
15198;SDS011;7700;48.654;9.070;2024-02-16T04:44:42;3.57;;;3.27;;
15198;SDS011;7700;48.654;9.070;2024-02-16T04:47:08;3.57;;;3.17;;
15198;SDS011;7700;48.654;9.070;2024-02-16T04:49:37;3.40;;;3.10;;
15198;SDS011;7700;48.654;9.070;2024-02-16T04:52:03;3.37;;;3.07;;
15198;SDS011;7700;48.654;9.070;2024-02-16T04:54:29;4.10;;;3.70;;
15198;SDS011;7700;48.654;9.070;2024-02-16T04:56:54;3.87;;;3.37;;
15198;SDS011;7700;48.654;9.070;2024-02-16T04:59:20;4.37;;;3.50;;
15198;SDS011;7700;48.654;9.070;2024-02-16T05:01:45;4.30;;;3.70;;
15198;SDS011;7700;48.654;9.070;2024-02-16T05:04:12;3.27;;;2.97;;
15198;SDS011;7700;48.654;9.070;2024-02-16T05:06:38;4.47;;;3.03;;
15198;SDS011;7700;48.654;9.070;2024-02-16T05:09:05;2.90;;;2.63;;
15198;SDS011;7700;48.654;9.070;2024-02-16T05:11:34;6.53;;;3.10;;
15198;SDS011;7700;48.654;9.070;2024-02-16T05:13:59;6.20;;;2.90;;
15198;SDS011;7700;48.654;9.070;2024-02-16T05:16:25;3.37;;;3.07;;
15198;SDS011;7700;48.654;9.070;2024-02-16T05:18:51;3.40;;;3.10;;
15198;SDS011;7700;48.654;9.070;2024-02-16T05:21:17;5.40;;;3.20;;
15198;SDS011;7700;48.654;9.070;2024-02-16T05:23:43;5.10;;;3.70;;
15198;SDS011;7700;48.654;9.070;2024-02-16T05:26:08;3.17;;;2.83;;
15198;SDS011;7700;48.654;9.070;2024-02-16T05:28:34;3.37;;;3.07;;
15198;SDS011;7700;48.654;9.070;2024-02-16T05:31:16;3.20;;;2.57;;
15198;SDS011;7700;48.654;9.070;2024-02-16T05:33:49;2.90;;;2.60;;
15198;SDS011;7700;48.654;9.070;2024-02-16T05:36:16;3.47;;;3.17;;
15198;SDS011;7700;48.654;9.070;2024-02-16T05:38:45;3.40;;;3.10;;
15198;SDS011;7700;48.654;9.070;2024-02-16T05:41:10;3.07;;;2.77;;
15198;SDS011;7700;48.654;9.070;2024-02-16T05:43:36;2.80;;;2.60;;
15198;SDS011;7700;48.654;9.070;2024-02-16T05:46:05;3.63;;;3.10;;
15198;SDS011;7700;48.654;9.070;2024-02-16T05:48:32;3.30;;;3.00;;
15198;SDS011;7700;48.654;9.070;2024-02-16T05:51:02;4.30;;;3.40;;
15198;SDS011;7700;48.654;9.070;2024-02-16T05:53:28;4.77;;;3.97;;
15198;SDS011;7700;48.654;9.070;2024-02-16T05:55:54;4.10;;;3.43;;
15198;SDS011;7700;48.654;9.070;2024-02-16T05:58:20;4.00;;;3.70;;
15198;SDS011;7700;48.654;9.070;2024-02-16T06:00:45;4.37;;;3.97;;
15198;SDS011;7700;48.654;9.070;2024-02-16T06:03:13;4.03;;;3.73;;
15198;SDS011;7700;48.654;9.070;2024-02-16T06:05:39;4.33;;;3.93;;
15198;SDS011;7700;48.654;9.070;2024-02-16T06:08:09;4.63;;;4.20;;
15198;SDS011;7700;48.654;9.070;2024-02-16T06:10:35;6.83;;;4.47;;
15198;SDS011;7700;48.654;9.070;2024-02-16T06:13:01;5.10;;;4.60;;
15198;SDS011;7700;48.654;9.070;2024-02-16T06:15:26;5.20;;;4.70;;
15198;SDS011;7700;48.654;9.070;2024-02-16T06:17:52;5.40;;;4.83;;
15198;SDS011;7700;48.654;9.070;2024-02-16T06:20:18;6.53;;;5.53;;
15198;SDS011;7700;48.654;9.070;2024-02-16T06:22:43;4.37;;;3.97;;
15198;SDS011;7700;48.654;9.070;2024-02-16T06:25:09;4.73;;;4.23;;
15198;SDS011;7700;48.654;9.070;2024-02-16T06:27:35;4.73;;;3.90;;
15198;SDS011;7700;48.654;9.070;2024-02-16T06:30:01;4.77;;;4.20;;
15198;SDS011;7700;48.654;9.070;2024-02-16T06:32:28;4.53;;;4.07;;
15198;SDS011;7700;48.654;9.070;2024-02-16T06:34:54;4.47;;;4.07;;
15198;SDS011;7700;48.654;9.070;2024-02-16T06:37:20;4.20;;;3.80;;
15198;SDS011;7700;48.654;9.070;2024-02-16T06:39:46;4.40;;;3.50;;
15198;SDS011;7700;48.654;9.070;2024-02-16T06:42:11;4.00;;;3.50;;
15198;SDS011;7700;48.654;9.070;2024-02-16T06:44:38;3.63;;;3.33;;
15198;SDS011;7700;48.654;9.070;2024-02-16T06:47:04;3.63;;;3.03;;
15198;SDS011;7700;48.654;9.070;2024-02-16T06:49:30;3.57;;;3.20;;
15198;SDS011;7700;48.654;9.070;2024-02-16T06:51:56;4.80;;;4.37;;
15198;SDS011;7700;48.654;9.070;2024-02-16T06:54:21;6.57;;;5.63;;
15198;SDS011;7700;48.654;9.070;2024-02-16T06:56:47;7.60;;;6.33;;
15198;SDS011;7700;48.654;9.070;2024-02-16T06:59:13;7.27;;;6.57;;
15198;SDS011;7700;48.654;9.070;2024-02-16T07:01:38;4.93;;;4.33;;
15198;SDS011;7700;48.654;9.070;2024-02-16T07:04:04;6.47;;;5.80;;
15198;SDS011;7700;48.654;9.070;2024-02-16T07:06:30;5.77;;;5.27;;
15198;SDS011;7700;48.654;9.070;2024-02-16T07:08:56;7.23;;;6.53;;
15198;SDS011;7700;48.654;9.070;2024-02-16T07:11:21;8.80;;;7.90;;
15198;SDS011;7700;48.654;9.070;2024-02-16T07:13:47;8.17;;;7.37;;
15198;SDS011;7700;48.654;9.070;2024-02-16T07:16:12;8.33;;;7.53;;
15198;SDS011;7700;48.654;9.070;2024-02-16T07:18:39;8.43;;;7.63;;
15198;SDS011;7700;48.654;9.070;2024-02-16T07:21:04;6.47;;;5.87;;
15198;SDS011;7700;48.654;9.070;2024-02-16T07:23:30;6.57;;;5.87;;
15198;SDS011;7700;48.654;9.070;2024-02-16T07:25:55;6.33;;;4.53;;
15198;SDS011;7700;48.654;9.070;2024-02-16T07:28:23;4.17;;;3.77;;
15198;SDS011;7700;48.654;9.070;2024-02-16T07:30:49;3.47;;;3.17;;
15198;SDS011;7700;48.654;9.070;2024-02-16T07:33:15;4.93;;;3.83;;
15198;SDS011;7700;48.654;9.070;2024-02-16T07:35:40;5.07;;;4.33;;
15198;SDS011;7700;48.654;9.070;2024-02-16T07:38:06;5.80;;;3.70;;
15198;SDS011;7700;48.654;9.070;2024-02-16T07:40:32;4.47;;;4.07;;
15198;SDS011;7700;48.654;9.070;2024-02-16T07:42:57;4.47;;;4.07;;
15198;SDS011;7700;48.654;9.070;2024-02-16T07:45:24;4.50;;;3.80;;
15198;SDS011;7700;48.654;9.070;2024-02-16T07:47:50;3.97;;;3.63;;
15198;SDS011;7700;48.654;9.070;2024-02-16T07:50:19;4.80;;;3.33;;
15198;SDS011;7700;48.654;9.070;2024-02-16T07:52:45;3.83;;;3.47;;
15198;SDS011;7700;48.654;9.070;2024-02-16T07:55:11;3.00;;;2.67;;
15198;SDS011;7700;48.654;9.070;2024-02-16T07:57:36;3.08;;;2.85;;
15198;SDS011;7700;48.654;9.070;2024-02-16T08:00:03;4.05;;;3.30;;
15198;SDS011;7700;48.654;9.070;2024-02-16T08:02:29;5.20;;;4.68;;
15198;SDS011;7700;48.654;9.070;2024-02-16T08:04:55;4.28;;;3.50;;
15198;SDS011;7700;48.654;9.070;2024-02-16T08:07:20;3.85;;;3.45;;
15198;SDS011;7700;48.654;9.070;2024-02-16T08:09:46;3.70;;;3.30;;
15198;SDS011;7700;48.654;9.070;2024-02-16T08:12:12;3.88;;;3.47;;
15198;SDS011;7700;48.654;9.070;2024-02-16T08:14:38;4.20;;;2.85;;
15198;SDS011;7700;48.654;9.070;2024-02-16T08:17:07;3.10;;;2.88;;
15198;SDS011;7700;48.654;9.070;2024-02-16T08:19:34;2.42;;;2.22;;
15198;SDS011;7700;48.654;9.070;2024-02-16T08:22:01;2.83;;;2.50;;
15198;SDS011;7700;48.654;9.070;2024-02-16T08:24:28;2.85;;;2.65;;
15198;SDS011;7700;48.654;9.070;2024-02-16T08:26:54;2.40;;;2.08;;
15198;SDS011;7700;48.654;9.070;2024-02-16T08:29:19;2.63;;;2.42;;
15198;SDS011;7700;48.654;9.070;2024-02-16T08:31:47;2.70;;;2.28;;
15198;SDS011;7700;48.654;9.070;2024-02-16T08:34:14;2.30;;;2.10;;
15198;SDS011;7700;48.654;9.070;2024-02-16T08:36:40;2.83;;;2.00;;
15198;SDS011;7700;48.654;9.070;2024-02-16T08:39:12;2.20;;;2.00;;
15198;SDS011;7700;48.654;9.070;2024-02-16T08:41:38;2.65;;;2.05;;
15198;SDS011;7700;48.654;9.070;2024-02-16T08:44:04;2.92;;;2.60;;
15198;SDS011;7700;48.654;9.070;2024-02-16T08:46:29;2.35;;;2.15;;
15198;SDS011;7700;48.654;9.070;2024-02-16T08:48:55;2.50;;;1.90;;
15198;SDS011;7700;48.654;9.070;2024-02-16T08:51:21;2.17;;;1.83;;
15198;SDS011;7700;48.654;9.070;2024-02-16T08:53:46;2.08;;;1.70;;
15198;SDS011;7700;48.654;9.070;2024-02-16T08:56:12;2.90;;;1.70;;
15198;SDS011;7700;48.654;9.070;2024-02-16T08:58:38;3.17;;;1.95;;
15198;SDS011;7700;48.654;9.070;2024-02-16T09:01:04;3.15;;;1.85;;
15198;SDS011;7700;48.654;9.070;2024-02-16T09:03:30;2.40;;;1.90;;
15198;SDS011;7700;48.654;9.070;2024-02-16T09:06:02;2.03;;;1.50;;
15198;SDS011;7700;48.654;9.070;2024-02-16T09:08:28;1.65;;;1.55;;
15198;SDS011;7700;48.654;9.070;2024-02-16T09:10:58;2.08;;;1.58;;
15198;SDS011;7700;48.654;9.070;2024-02-16T09:13:30;3.05;;;1.50;;
15198;SDS011;7700;48.654;9.070;2024-02-16T09:15:59;2.78;;;1.63;;
15198;SDS011;7700;48.654;9.070;2024-02-16T09:18:26;2.13;;;1.50;;
15198;SDS011;7700;48.654;9.070;2024-02-16T09:20:52;1.90;;;1.60;;
15198;SDS011;7700;48.654;9.070;2024-02-16T09:23:17;2.20;;;1.45;;
15198;SDS011;7700;48.654;9.070;2024-02-16T09:25:43;2.33;;;1.63;;
15198;SDS011;7700;48.654;9.070;2024-02-16T09:28:11;3.35;;;1.42;;
15198;SDS011;7700;48.654;9.070;2024-02-16T09:30:37;1.33;;;1.10;;
15198;SDS011;7700;48.654;9.070;2024-02-16T09:33:03;2.88;;;1.50;;
15198;SDS011;7700;48.654;9.070;2024-02-16T09:35:28;1.88;;;1.70;;
15198;SDS011;7700;48.654;9.070;2024-02-16T09:37:54;2.67;;;1.60;;
15198;SDS011;7700;48.654;9.070;2024-02-16T09:40:20;3.33;;;1.40;;
15198;SDS011;7700;48.654;9.070;2024-02-16T09:42:47;1.55;;;1.17;;
15198;SDS011;7700;48.654;9.070;2024-02-16T09:45:14;1.52;;;1.17;;
15198;SDS011;7700;48.654;9.070;2024-02-16T09:47:42;3.08;;;1.52;;
15198;SDS011;7700;48.654;9.070;2024-02-16T09:50:09;1.60;;;1.30;;
15198;SDS011;7700;48.654;9.070;2024-02-16T09:52:35;1.65;;;1.50;;
15198;SDS011;7700;48.654;9.070;2024-02-16T09:55:01;2.05;;;1.40;;
15198;SDS011;7700;48.654;9.070;2024-02-16T09:57:27;1.38;;;1.20;;
15198;SDS011;7700;48.654;9.070;2024-02-16T09:59:53;2.55;;;1.60;;
15198;SDS011;7700;48.654;9.070;2024-02-16T10:03:30;1.23;;;1.13;;
15198;SDS011;7700;48.654;9.070;2024-02-16T10:06:06;2.03;;;1.33;;
15198;SDS011;7700;48.654;9.070;2024-02-16T10:08:33;2.15;;;1.50;;
15198;SDS011;7700;48.654;9.070;2024-02-16T10:11:03;4.63;;;2.05;;
15198;SDS011;7700;48.654;9.070;2024-02-16T10:13:33;2.03;;;1.60;;
15198;SDS011;7700;48.654;9.070;2024-02-16T10:16:05;1.42;;;1.33;;
15198;SDS011;7700;48.654;9.070;2024-02-16T10:18:33;3.00;;;1.63;;
15198;SDS011;7700;48.654;9.070;2024-02-16T10:21:00;1.77;;;1.40;;
15198;SDS011;7700;48.654;9.070;2024-02-16T10:23:25;1.88;;;1.67;;
15198;SDS011;7700;48.654;9.070;2024-02-16T10:25:51;2.42;;;1.67;;
15198;SDS011;7700;48.654;9.070;2024-02-16T10:28:17;3.50;;;1.80;;
15198;SDS011;7700;48.654;9.070;2024-02-16T10:30:45;3.40;;;1.70;;
15198;SDS011;7700;48.654;9.070;2024-02-16T10:33:11;3.78;;;1.83;;
15198;SDS011;7700;48.654;9.070;2024-02-16T10:35:37;3.38;;;1.50;;
15198;SDS011;7700;48.654;9.070;2024-02-16T10:38:04;2.45;;;1.73;;
15198;SDS011;7700;48.654;9.070;2024-02-16T10:40:38;5.18;;;2.03;;
15198;SDS011;7700;48.654;9.070;2024-02-16T10:43:06;1.92;;;1.67;;
15198;SDS011;7700;48.654;9.070;2024-02-16T10:45:34;2.33;;;1.77;;
15198;SDS011;7700;48.654;9.070;2024-02-16T10:48:01;2.70;;;1.95;;
15198;SDS011;7700;48.654;9.070;2024-02-16T10:50:29;1.77;;;1.67;;
15198;SDS011;7700;48.654;9.070;2024-02-16T10:52:55;1.80;;;1.70;;
15198;SDS011;7700;48.654;9.070;2024-02-16T10:55:24;4.15;;;1.48;;
15198;SDS011;7700;48.654;9.070;2024-02-16T10:57:50;4.35;;;1.80;;
15198;SDS011;7700;48.654;9.070;2024-02-16T11:00:19;2.75;;;1.88;;
15198;SDS011;7700;48.654;9.070;2024-02-16T11:02:52;3.45;;;1.65;;
15198;SDS011;7700;48.654;9.070;2024-02-16T11:05:20;5.10;;;2.17;;
15198;SDS011;7700;48.654;9.070;2024-02-16T11:08:03;2.90;;;2.60;;
15198;SDS011;7700;48.654;9.070;2024-02-16T11:10:29;5.88;;;2.97;;
15198;SDS011;7700;48.654;9.070;2024-02-16T11:12:59;3.25;;;2.60;;
15198;SDS011;7700;48.654;9.070;2024-02-16T11:15:28;4.10;;;2.28;;
15198;SDS011;7700;48.654;9.070;2024-02-16T11:18:02;4.50;;;2.10;;
15198;SDS011;7700;48.654;9.070;2024-02-16T11:20:28;3.03;;;2.28;;
15198;SDS011;7700;48.654;9.070;2024-02-16T11:23:10;3.60;;;2.28;;
15198;SDS011;7700;48.654;9.070;2024-02-16T11:25:37;5.32;;;2.20;;
15198;SDS011;7700;48.654;9.070;2024-02-16T11:28:03;3.72;;;2.05;;
15198;SDS011;7700;48.654;9.070;2024-02-16T11:30:32;2.58;;;2.00;;
15198;SDS011;7700;48.654;9.070;2024-02-16T11:32:59;2.55;;;2.05;;
15198;SDS011;7700;48.654;9.070;2024-02-16T11:35:25;2.15;;;1.85;;
15198;SDS011;7700;48.654;9.070;2024-02-16T11:37:50;1.60;;;1.50;;
15198;SDS011;7700;48.654;9.070;2024-02-16T11:40:16;3.55;;;1.83;;
15198;SDS011;7700;48.654;9.070;2024-02-16T11:42:42;2.72;;;1.88;;
15198;SDS011;7700;48.654;9.070;2024-02-16T11:45:11;6.40;;;2.08;;
15198;SDS011;7700;48.654;9.070;2024-02-16T11:47:37;4.22;;;1.75;;
15198;SDS011;7700;48.654;9.070;2024-02-16T11:50:09;3.08;;;1.83;;
15198;SDS011;7700;48.654;9.070;2024-02-16T11:52:39;2.70;;;1.80;;
15198;SDS011;7700;48.654;9.070;2024-02-16T11:55:08;2.97;;;1.73;;
15198;SDS011;7700;48.654;9.070;2024-02-16T11:57:35;2.13;;;1.60;;
15198;SDS011;7700;48.654;9.070;2024-02-16T12:00:02;1.70;;;1.30;;
15198;SDS011;7700;48.654;9.070;2024-02-16T12:02:33;3.40;;;1.63;;
15198;SDS011;7700;48.654;9.070;2024-02-16T12:05:00;3.58;;;1.70;;
15198;SDS011;7700;48.654;9.070;2024-02-16T12:07:26;3.13;;;1.73;;
15198;SDS011;7700;48.654;9.070;2024-02-16T12:09:56;3.15;;;1.52;;
15198;SDS011;7700;48.654;9.070;2024-02-16T12:12:26;2.45;;;1.50;;
15198;SDS011;7700;48.654;9.070;2024-02-16T12:14:52;2.95;;;1.98;;
15198;SDS011;7700;48.654;9.070;2024-02-16T12:17:19;2.80;;;1.75;;
15198;SDS011;7700;48.654;9.070;2024-02-16T12:19:45;3.10;;;1.80;;
15198;SDS011;7700;48.654;9.070;2024-02-16T12:22:16;4.22;;;2.00;;
15198;SDS011;7700;48.654;9.070;2024-02-16T12:24:43;3.47;;;2.10;;
15198;SDS011;7700;48.654;9.070;2024-02-16T12:27:10;2.60;;;1.95;;
15198;SDS011;7700;48.654;9.070;2024-02-16T12:29:35;3.70;;;1.73;;
15198;SDS011;7700;48.654;9.070;2024-02-16T12:32:01;3.80;;;1.73;;
15198;SDS011;7700;48.654;9.070;2024-02-16T12:34:26;3.72;;;1.70;;
15198;SDS011;7700;48.654;9.070;2024-02-16T12:36:53;4.38;;;2.45;;
15198;SDS011;7700;48.654;9.070;2024-02-16T12:39:18;3.13;;;2.05;;
15198;SDS011;7700;48.654;9.070;2024-02-16T12:41:44;4.13;;;2.00;;
15198;SDS011;7700;48.654;9.070;2024-02-16T12:44:09;4.18;;;1.63;;
15198;SDS011;7700;48.654;9.070;2024-02-16T12:46:35;2.55;;;1.77;;
15198;SDS011;7700;48.654;9.070;2024-02-16T12:49:01;3.53;;;1.90;;
15198;SDS011;7700;48.654;9.070;2024-02-16T12:51:26;4.22;;;1.90;;
15198;SDS011;7700;48.654;9.070;2024-02-16T12:53:52;2.60;;;2.03;;
15198;SDS011;7700;48.654;9.070;2024-02-16T12:56:17;4.13;;;1.80;;
15198;SDS011;7700;48.654;9.070;2024-02-16T12:58:43;6.57;;;2.05;;
15198;SDS011;7700;48.654;9.070;2024-02-16T13:01:09;4.80;;;2.00;;
15198;SDS011;7700;48.654;9.070;2024-02-16T13:03:35;2.55;;;1.83;;
15198;SDS011;7700;48.654;9.070;2024-02-16T13:06:02;2.20;;;1.80;;
15198;SDS011;7700;48.654;9.070;2024-02-16T13:08:29;4.00;;;2.08;;
15198;SDS011;7700;48.654;9.070;2024-02-16T13:10:55;3.58;;;1.63;;
15198;SDS011;7700;48.654;9.070;2024-02-16T13:13:21;4.22;;;1.95;;
15198;SDS011;7700;48.654;9.070;2024-02-16T13:15:47;4.60;;;1.98;;
15198;SDS011;7700;48.654;9.070;2024-02-16T13:18:13;2.92;;;1.48;;
15198;SDS011;7700;48.654;9.070;2024-02-16T13:20:39;3.03;;;1.95;;
15198;SDS011;7700;48.654;9.070;2024-02-16T13:23:05;3.78;;;2.22;;
15198;SDS011;7700;48.654;9.070;2024-02-16T13:25:30;2.92;;;1.80;;
15198;SDS011;7700;48.654;9.070;2024-02-16T13:27:56;4.03;;;1.77;;
15198;SDS011;7700;48.654;9.070;2024-02-16T13:30:22;4.18;;;2.17;;
15198;SDS011;7700;48.654;9.070;2024-02-16T13:32:47;2.45;;;2.25;;
15198;SDS011;7700;48.654;9.070;2024-02-16T13:35:13;2.65;;;2.00;;
15198;SDS011;7700;48.654;9.070;2024-02-16T13:37:40;7.35;;;2.10;;
15198;SDS011;7700;48.654;9.070;2024-02-16T13:40:08;4.30;;;2.67;;
15198;SDS011;7700;48.654;9.070;2024-02-16T13:42:38;4.55;;;1.92;;
15198;SDS011;7700;48.654;9.070;2024-02-16T13:45:04;2.58;;;1.88;;
15198;SDS011;7700;48.654;9.070;2024-02-16T13:47:29;4.10;;;2.10;;
15198;SDS011;7700;48.654;9.070;2024-02-16T13:49:55;3.63;;;2.03;;
15198;SDS011;7700;48.654;9.070;2024-02-16T13:52:22;3.42;;;1.95;;
15198;SDS011;7700;48.654;9.070;2024-02-16T13:54:48;3.63;;;1.88;;
15198;SDS011;7700;48.654;9.070;2024-02-16T13:57:14;5.22;;;2.00;;
15198;SDS011;7700;48.654;9.070;2024-02-16T13:59:40;3.55;;;1.83;;
15198;SDS011;7700;48.654;9.070;2024-02-16T14:02:06;6.22;;;2.35;;
15198;SDS011;7700;48.654;9.070;2024-02-16T14:04:33;5.35;;;2.65;;
15198;SDS011;7700;48.654;9.070;2024-02-16T14:06:59;3.67;;;2.38;;
15198;SDS011;7700;48.654;9.070;2024-02-16T14:09:24;5.65;;;2.13;;
15198;SDS011;7700;48.654;9.070;2024-02-16T14:11:51;3.88;;;1.75;;
15198;SDS011;7700;48.654;9.070;2024-02-16T14:14:18;3.50;;;2.05;;
15198;SDS011;7700;48.654;9.070;2024-02-16T14:16:44;3.88;;;2.10;;
15198;SDS011;7700;48.654;9.070;2024-02-16T14:19:10;4.28;;;2.38;;
15198;SDS011;7700;48.654;9.070;2024-02-16T14:21:35;3.47;;;1.80;;
15198;SDS011;7700;48.654;9.070;2024-02-16T14:24:01;4.03;;;2.00;;
15198;SDS011;7700;48.654;9.070;2024-02-16T14:26:26;3.67;;;1.80;;
15198;SDS011;7700;48.654;9.070;2024-02-16T14:28:52;3.58;;;1.90;;
15198;SDS011;7700;48.654;9.070;2024-02-16T14:31:20;7.53;;;2.00;;
15198;SDS011;7700;48.654;9.070;2024-02-16T14:33:46;4.32;;;1.70;;
15198;SDS011;7700;48.654;9.070;2024-02-16T14:36:13;4.97;;;1.90;;
15198;SDS011;7700;48.654;9.070;2024-02-16T14:38:38;4.57;;;2.10;;
15198;SDS011;7700;48.654;9.070;2024-02-16T14:41:04;5.68;;;2.10;;
15198;SDS011;7700;48.654;9.070;2024-02-16T14:43:30;8.00;;;2.28;;
15198;SDS011;7700;48.654;9.070;2024-02-16T14:45:57;8.23;;;2.55;;
15198;SDS011;7700;48.654;9.070;2024-02-16T14:48:23;5.80;;;1.95;;
15198;SDS011;7700;48.654;9.070;2024-02-16T14:50:50;8.27;;;2.40;;
15198;SDS011;7700;48.654;9.070;2024-02-16T14:53:19;5.93;;;2.50;;
15198;SDS011;7700;48.654;9.070;2024-02-16T14:55:45;7.05;;;1.83;;